sensor_id;sensor_type;location;lat;lon;timestamp;P1;durP1;ratioP1;P2;durP2;ratioP2
31336;SDS011;22846;42.654;23.314;2023-11-18T00:01:02;3.22;;;1.45;;
31336;SDS011;22846;42.654;23.314;2023-11-18T00:03:28;3.63;;;1.63;;
31336;SDS011;22846;42.654;23.314;2023-11-18T00:05:53;2.67;;;1.60;;
31336;SDS011;22846;42.654;23.314;2023-11-18T00:08:19;3.67;;;1.58;;
31336;SDS011;22846;42.654;23.314;2023-11-18T00:10:44;3.00;;;1.40;;
31336;SDS011;22846;42.654;23.314;2023-11-18T00:13:10;3.97;;;1.40;;
31336;SDS011;22846;42.654;23.314;2023-11-18T00:15:35;2.78;;;1.33;;
31336;SDS011;22846;42.654;23.314;2023-11-18T00:18:01;3.22;;;1.65;;
31336;SDS011;22846;42.654;23.314;2023-11-18T00:20:26;3.58;;;1.40;;
31336;SDS011;22846;42.654;23.314;2023-11-18T00:22:52;5.32;;;1.60;;
31336;SDS011;22846;42.654;23.314;2023-11-18T00:25:19;2.83;;;1.23;;
31336;SDS011;22846;42.654;23.314;2023-11-18T00:27:44;2.33;;;1.45;;
31336;SDS011;22846;42.654;23.314;2023-11-18T00:30:09;3.97;;;1.52;;
31336;SDS011;22846;42.654;23.314;2023-11-18T00:32:38;2.72;;;1.55;;
31336;SDS011;22846;42.654;23.314;2023-11-18T00:35:04;2.47;;;1.42;;
31336;SDS011;22846;42.654;23.314;2023-11-18T00:37:30;2.85;;;1.67;;
31336;SDS011;22846;42.654;23.314;2023-11-18T00:39:56;1.85;;;1.30;;
31336;SDS011;22846;42.654;23.314;2023-11-18T00:42:22;3.17;;;1.55;;
31336;SDS011;22846;42.654;23.314;2023-11-18T00:44:47;2.53;;;1.33;;
31336;SDS011;22846;42.654;23.314;2023-11-18T00:47:12;2.60;;;1.60;;
31336;SDS011;22846;42.654;23.314;2023-11-18T00:49:38;3.55;;;1.38;;
31336;SDS011;22846;42.654;23.314;2023-11-18T00:52:03;2.70;;;1.38;;
31336;SDS011;22846;42.654;23.314;2023-11-18T00:54:30;3.20;;;1.45;;
31336;SDS011;22846;42.654;23.314;2023-11-18T00:56:55;3.30;;;1.20;;
31336;SDS011;22846;42.654;23.314;2023-11-18T00:59:20;2.47;;;1.40;;
31336;SDS011;22846;42.654;23.314;2023-11-18T01:01:46;2.88;;;1.15;;
31336;SDS011;22846;42.654;23.314;2023-11-18T01:04:11;2.95;;;1.20;;
31336;SDS011;22846;42.654;23.314;2023-11-18T01:06:37;2.58;;;1.60;;
31336;SDS011;22846;42.654;23.314;2023-11-18T01:09:03;2.15;;;1.00;;
31336;SDS011;22846;42.654;23.314;2023-11-18T01:11:28;2.00;;;1.15;;
31336;SDS011;22846;42.654;23.314;2023-11-18T01:13:54;1.30;;;1.13;;
31336;SDS011;22846;42.654;23.314;2023-11-18T01:16:20;2.00;;;1.02;;
31336;SDS011;22846;42.654;23.314;2023-11-18T01:18:46;2.08;;;1.27;;
31336;SDS011;22846;42.654;23.314;2023-11-18T01:21:11;1.10;;;0.95;;
31336;SDS011;22846;42.654;23.314;2023-11-18T01:23:37;3.17;;;1.30;;
31336;SDS011;22846;42.654;23.314;2023-11-18T01:26:04;2.45;;;1.27;;
31336;SDS011;22846;42.654;23.314;2023-11-18T01:28:39;1.35;;;0.90;;
31336;SDS011;22846;42.654;23.314;2023-11-18T01:31:08;1.30;;;1.13;;
31336;SDS011;22846;42.654;23.314;2023-11-18T01:33:35;2.72;;;1.23;;
31336;SDS011;22846;42.654;23.314;2023-11-18T01:36:08;2.42;;;0.90;;
31336;SDS011;22846;42.654;23.314;2023-11-18T01:38:34;3.03;;;1.30;;
31336;SDS011;22846;42.654;23.314;2023-11-18T01:41:02;2.45;;;1.17;;
31336;SDS011;22846;42.654;23.314;2023-11-18T01:43:30;2.05;;;1.20;;
31336;SDS011;22846;42.654;23.314;2023-11-18T01:45:57;1.73;;;1.05;;
31336;SDS011;22846;42.654;23.314;2023-11-18T01:48:27;1.17;;;1.08;;
31336;SDS011;22846;42.654;23.314;2023-11-18T01:50:53;1.85;;;1.10;;
31336;SDS011;22846;42.654;23.314;2023-11-18T01:53:22;1.65;;;1.17;;
31336;SDS011;22846;42.654;23.314;2023-11-18T01:55:49;2.25;;;1.23;;
31336;SDS011;22846;42.654;23.314;2023-11-18T01:58:15;1.45;;;1.00;;
31336;SDS011;22846;42.654;23.314;2023-11-18T02:00:44;1.35;;;1.10;;
31336;SDS011;22846;42.654;23.314;2023-11-18T02:03:12;1.38;;;1.10;;
31336;SDS011;22846;42.654;23.314;2023-11-18T02:05:37;2.00;;;1.20;;
31336;SDS011;22846;42.654;23.314;2023-11-18T02:08:04;1.85;;;1.10;;
31336;SDS011;22846;42.654;23.314;2023-11-18T02:10:32;1.60;;;1.10;;
31336;SDS011;22846;42.654;23.314;2023-11-18T02:13:24;1.65;;;0.95;;
31336;SDS011;22846;42.654;23.314;2023-11-18T02:15:56;3.42;;;1.00;;
31336;SDS011;22846;42.654;23.314;2023-11-18T02:18:26;1.25;;;1.08;;
31336;SDS011;22846;42.654;23.314;2023-11-18T02:20:54;1.88;;;1.00;;
31336;SDS011;22846;42.654;23.314;2023-11-18T02:23:22;2.40;;;0.90;;
31336;SDS011;22846;42.654;23.314;2023-11-18T02:25:48;1.60;;;1.00;;
31336;SDS011;22846;42.654;23.314;2023-11-18T02:28:14;1.20;;;1.02;;
31336;SDS011;22846;42.654;23.314;2023-11-18T02:30:42;2.25;;;1.05;;
31336;SDS011;22846;42.654;23.314;2023-11-18T02:33:15;1.50;;;1.10;;
31336;SDS011;22846;42.654;23.314;2023-11-18T02:35:54;1.00;;;0.90;;
31336;SDS011;22846;42.654;23.314;2023-11-18T02:38:31;1.25;;;1.00;;
31336;SDS011;22846;42.654;23.314;2023-11-18T02:41:06;1.15;;;1.00;;
31336;SDS011;22846;42.654;23.314;2023-11-18T02:43:35;1.50;;;0.90;;
31336;SDS011;22846;42.654;23.314;2023-11-18T02:46:03;1.30;;;0.90;;
31336;SDS011;22846;42.654;23.314;2023-11-18T02:48:31;0.80;;;0.80;;
31336;SDS011;22846;42.654;23.314;2023-11-18T02:50:58;2.03;;;1.08;;
31336;SDS011;22846;42.654;23.314;2023-11-18T02:53:24;1.17;;;1.00;;
31336;SDS011;22846;42.654;23.314;2023-11-18T02:55:50;2.33;;;1.00;;
31336;SDS011;22846;42.654;23.314;2023-11-18T02:58:17;1.17;;;0.93;;
31336;SDS011;22846;42.654;23.314;2023-11-18T03:00:43;0.88;;;0.80;;
31336;SDS011;22846;42.654;23.314;2023-11-18T03:03:09;1.00;;;0.77;;
31336;SDS011;22846;42.654;23.314;2023-11-18T03:05:36;1.67;;;0.90;;
31336;SDS011;22846;42.654;23.314;2023-11-18T03:08:01;1.02;;;0.85;;
31336;SDS011;22846;42.654;23.314;2023-11-18T03:10:31;1.10;;;0.80;;
31336;SDS011;22846;42.654;23.314;2023-11-18T03:13:00;1.33;;;0.70;;
31336;SDS011;22846;42.654;23.314;2023-11-18T03:15:26;0.88;;;0.85;;
31336;SDS011;22846;42.654;23.314;2023-11-18T03:17:52;1.33;;;0.90;;
31336;SDS011;22846;42.654;23.314;2023-11-18T03:20:19;1.00;;;0.70;;
31336;SDS011;22846;42.654;23.314;2023-11-18T03:22:48;0.80;;;0.77;;
31336;SDS011;22846;42.654;23.314;2023-11-18T03:25:16;2.15;;;0.80;;
31336;SDS011;22846;42.654;23.314;2023-11-18T03:27:42;1.83;;;0.80;;
31336;SDS011;22846;42.654;23.314;2023-11-18T03:30:09;0.80;;;0.80;;
31336;SDS011;22846;42.654;23.314;2023-11-18T03:32:35;1.10;;;0.85;;
31336;SDS011;22846;42.654;23.314;2023-11-18T03:35:02;0.80;;;0.80;;
31336;SDS011;22846;42.654;23.314;2023-11-18T03:37:32;1.10;;;0.80;;
31336;SDS011;22846;42.654;23.314;2023-11-18T03:39:57;0.98;;;0.85;;
31336;SDS011;22846;42.654;23.314;2023-11-18T03:42:23;1.10;;;0.85;;
31336;SDS011;22846;42.654;23.314;2023-11-18T03:44:48;1.00;;;0.68;;
31336;SDS011;22846;42.654;23.314;2023-11-18T03:47:14;2.15;;;0.80;;
31336;SDS011;22846;42.654;23.314;2023-11-18T03:49:42;1.10;;;0.77;;
31336;SDS011;22846;42.654;23.314;2023-11-18T03:52:08;1.50;;;0.90;;
31336;SDS011;22846;42.654;23.314;2023-11-18T03:54:34;1.10;;;0.75;;
31336;SDS011;22846;42.654;23.314;2023-11-18T03:56:59;0.63;;;0.63;;
31336;SDS011;22846;42.654;23.314;2023-11-18T03:59:25;1.05;;;0.82;;
31336;SDS011;22846;42.654;23.314;2023-11-18T04:01:51;0.70;;;0.60;;
31336;SDS011;22846;42.654;23.314;2023-11-18T04:04:17;1.02;;;0.80;;
31336;SDS011;22846;42.654;23.314;2023-11-18T04:06:43;0.73;;;0.68;;
31336;SDS011;22846;42.654;23.314;2023-11-18T04:09:09;0.98;;;0.77;;
31336;SDS011;22846;42.654;23.314;2023-11-18T04:11:35;1.70;;;0.90;;
31336;SDS011;22846;42.654;23.314;2023-11-18T04:14:01;0.75;;;0.75;;
31336;SDS011;22846;42.654;23.314;2023-11-18T04:16:28;1.10;;;0.80;;
31336;SDS011;22846;42.654;23.314;2023-11-18T04:18:53;0.95;;;0.82;;
31336;SDS011;22846;42.654;23.314;2023-11-18T04:21:19;0.82;;;0.80;;
31336;SDS011;22846;42.654;23.314;2023-11-18T04:23:44;2.20;;;0.85;;
31336;SDS011;22846;42.654;23.314;2023-11-18T04:26:11;1.20;;;0.90;;
31336;SDS011;22846;42.654;23.314;2023-11-18T04:28:37;1.27;;;1.00;;
31336;SDS011;22846;42.654;23.314;2023-11-18T04:31:03;0.80;;;0.70;;
31336;SDS011;22846;42.654;23.314;2023-11-18T04:33:30;1.10;;;0.90;;
31336;SDS011;22846;42.654;23.314;2023-11-18T04:35:56;0.73;;;0.73;;
31336;SDS011;22846;42.654;23.314;2023-11-18T04:38:22;0.77;;;0.77;;
31336;SDS011;22846;42.654;23.314;2023-11-18T04:40:48;0.88;;;0.88;;
31336;SDS011;22846;42.654;23.314;2023-11-18T04:43:14;0.60;;;0.60;;
31336;SDS011;22846;42.654;23.314;2023-11-18T04:45:40;0.82;;;0.75;;
31336;SDS011;22846;42.654;23.314;2023-11-18T04:48:06;0.80;;;0.80;;
31336;SDS011;22846;42.654;23.314;2023-11-18T04:50:31;0.82;;;0.70;;
31336;SDS011;22846;42.654;23.314;2023-11-18T04:52:58;1.92;;;0.98;;
31336;SDS011;22846;42.654;23.314;2023-11-18T04:55:24;0.95;;;0.85;;
31336;SDS011;22846;42.654;23.314;2023-11-18T04:57:51;1.55;;;0.95;;
31336;SDS011;22846;42.654;23.314;2023-11-18T05:00:20;1.25;;;0.73;;
31336;SDS011;22846;42.654;23.314;2023-11-18T05:02:46;0.80;;;0.70;;
31336;SDS011;22846;42.654;23.314;2023-11-18T05:05:13;0.95;;;0.90;;
31336;SDS011;22846;42.654;23.314;2023-11-18T05:07:40;0.80;;;0.80;;
31336;SDS011;22846;42.654;23.314;2023-11-18T05:10:06;1.77;;;1.08;;
31336;SDS011;22846;42.654;23.314;2023-11-18T05:12:35;4.85;;;1.20;;
31336;SDS011;22846;42.654;23.314;2023-11-18T05:15:02;1.52;;;0.90;;
31336;SDS011;22846;42.654;23.314;2023-11-18T05:17:29;0.90;;;0.80;;
31336;SDS011;22846;42.654;23.314;2023-11-18T05:19:55;1.08;;;0.70;;
31336;SDS011;22846;42.654;23.314;2023-11-18T05:22:20;1.00;;;0.90;;
31336;SDS011;22846;42.654;23.314;2023-11-18T05:24:46;0.80;;;0.80;;
31336;SDS011;22846;42.654;23.314;2023-11-18T05:27:13;0.82;;;0.60;;
31336;SDS011;22846;42.654;23.314;2023-11-18T05:29:39;1.25;;;0.90;;
31336;SDS011;22846;42.654;23.314;2023-11-18T05:32:06;1.45;;;0.90;;
31336;SDS011;22846;42.654;23.314;2023-11-18T05:34:33;0.85;;;0.85;;
31336;SDS011;22846;42.654;23.314;2023-11-18T05:37:00;0.85;;;0.70;;
31336;SDS011;22846;42.654;23.314;2023-11-18T05:39:26;0.70;;;0.70;;
31336;SDS011;22846;42.654;23.314;2023-11-18T05:41:53;0.75;;;0.75;;
31336;SDS011;22846;42.654;23.314;2023-11-18T05:44:21;1.50;;;0.85;;
31336;SDS011;22846;42.654;23.314;2023-11-18T05:46:55;0.80;;;0.70;;
31336;SDS011;22846;42.654;23.314;2023-11-18T05:49:23;0.85;;;0.75;;
31336;SDS011;22846;42.654;23.314;2023-11-18T05:51:49;0.98;;;0.63;;
31336;SDS011;22846;42.654;23.314;2023-11-18T05:54:15;1.20;;;0.77;;
31336;SDS011;22846;42.654;23.314;2023-11-18T05:56:40;0.88;;;0.80;;
31336;SDS011;22846;42.654;23.314;2023-11-18T05:59:06;0.77;;;0.77;;
31336;SDS011;22846;42.654;23.314;2023-11-18T06:01:33;0.70;;;0.70;;
31336;SDS011;22846;42.654;23.314;2023-11-18T06:03:59;0.80;;;0.68;;
31336;SDS011;22846;42.654;23.314;2023-11-18T06:06:26;0.90;;;0.60;;
31336;SDS011;22846;42.654;23.314;2023-11-18T06:08:52;0.98;;;0.90;;
31336;SDS011;22846;42.654;23.314;2023-11-18T06:11:18;1.05;;;0.90;;
31336;SDS011;22846;42.654;23.314;2023-11-18T06:13:45;0.60;;;0.60;;
31336;SDS011;22846;42.654;23.314;2023-11-18T06:18:43;0.65;;;0.65;;
31336;SDS011;22846;42.654;23.314;2023-11-18T06:21:13;1.45;;;0.70;;
31336;SDS011;22846;42.654;23.314;2023-11-18T06:23:39;0.73;;;0.70;;
31336;SDS011;22846;42.654;23.314;2023-11-18T06:26:05;0.70;;;0.70;;
31336;SDS011;22846;42.654;23.314;2023-11-18T06:28:30;0.80;;;0.80;;
31336;SDS011;22846;42.654;23.314;2023-11-18T06:30:58;1.15;;;0.82;;
31336;SDS011;22846;42.654;23.314;2023-11-18T06:33:24;0.88;;;0.80;;
31336;SDS011;22846;42.654;23.314;2023-11-18T06:35:52;0.70;;;0.60;;
31336;SDS011;22846;42.654;23.314;2023-11-18T06:38:19;1.17;;;0.70;;
31336;SDS011;22846;42.654;23.314;2023-11-18T06:40:45;0.50;;;0.50;;
31336;SDS011;22846;42.654;23.314;2023-11-18T06:43:11;1.00;;;0.80;;
31336;SDS011;22846;42.654;23.314;2023-11-18T06:45:41;0.82;;;0.60;;
31336;SDS011;22846;42.654;23.314;2023-11-18T06:48:08;1.02;;;0.70;;
31336;SDS011;22846;42.654;23.314;2023-11-18T06:50:34;0.68;;;0.65;;
31336;SDS011;22846;42.654;23.314;2023-11-18T06:53:00;0.70;;;0.65;;
31336;SDS011;22846;42.654;23.314;2023-11-18T06:55:26;0.93;;;0.77;;
31336;SDS011;22846;42.654;23.314;2023-11-18T06:57:52;0.70;;;0.60;;
31336;SDS011;22846;42.654;23.314;2023-11-18T07:00:19;0.57;;;0.57;;
31336;SDS011;22846;42.654;23.314;2023-11-18T07:02:46;0.77;;;0.70;;
31336;SDS011;22846;42.654;23.314;2023-11-18T07:05:12;1.02;;;0.88;;
31336;SDS011;22846;42.654;23.314;2023-11-18T07:07:39;0.70;;;0.70;;
31336;SDS011;22846;42.654;23.314;2023-11-18T07:10:05;0.70;;;0.70;;
31336;SDS011;22846;42.654;23.314;2023-11-18T07:12:34;0.70;;;0.70;;
31336;SDS011;22846;42.654;23.314;2023-11-18T07:15:03;0.70;;;0.70;;
31336;SDS011;22846;42.654;23.314;2023-11-18T07:17:30;1.75;;;0.65;;
31336;SDS011;22846;42.654;23.314;2023-11-18T07:19:55;0.82;;;0.60;;
31336;SDS011;22846;42.654;23.314;2023-11-18T07:22:20;0.70;;;0.70;;
31336;SDS011;22846;42.654;23.314;2023-11-18T07:24:46;1.27;;;0.80;;
31336;SDS011;22846;42.654;23.314;2023-11-18T07:27:12;0.90;;;0.70;;
31336;SDS011;22846;42.654;23.314;2023-11-18T07:29:38;0.60;;;0.60;;
31336;SDS011;22846;42.654;23.314;2023-11-18T07:32:03;0.68;;;0.60;;
31336;SDS011;22846;42.654;23.314;2023-11-18T07:34:31;1.05;;;0.82;;
31336;SDS011;22846;42.654;23.314;2023-11-18T07:36:58;2.28;;;0.70;;
31336;SDS011;22846;42.654;23.314;2023-11-18T07:39:24;1.63;;;0.60;;
31336;SDS011;22846;42.654;23.314;2023-11-18T07:42:01;0.45;;;0.45;;
31336;SDS011;22846;42.654;23.314;2023-11-18T07:44:27;5.82;;;0.90;;
31336;SDS011;22846;42.654;23.314;2023-11-18T07:46:58;3.20;;;0.65;;
31336;SDS011;22846;42.654;23.314;2023-11-18T07:49:24;1.95;;;0.77;;
31336;SDS011;22846;42.654;23.314;2023-11-18T07:51:51;1.20;;;0.80;;
31336;SDS011;22846;42.654;23.314;2023-11-18T07:54:17;3.20;;;0.80;;
31336;SDS011;22846;42.654;23.314;2023-11-18T07:56:43;4.75;;;0.70;;
31336;SDS011;22846;42.654;23.314;2023-11-18T07:59:11;1.52;;;0.70;;
31336;SDS011;22846;42.654;23.314;2023-11-18T08:01:44;2.47;;;0.70;;
31336;SDS011;22846;42.654;23.314;2023-11-18T08:04:11;1.08;;;0.70;;
31336;SDS011;22846;42.654;23.314;2023-11-18T08:06:40;1.50;;;0.80;;
31336;SDS011;22846;42.654;23.314;2023-11-18T08:09:06;0.75;;;0.70;;
31336;SDS011;22846;42.654;23.314;2023-11-18T08:11:38;2.28;;;0.80;;
31336;SDS011;22846;42.654;23.314;2023-11-18T08:14:06;1.60;;;0.55;;
31336;SDS011;22846;42.654;23.314;2023-11-18T08:16:33;2.30;;;0.80;;
31336;SDS011;22846;42.654;23.314;2023-11-18T08:18:59;1.05;;;0.73;;
31336;SDS011;22846;42.654;23.314;2023-11-18T08:21:24;0.82;;;0.50;;
31336;SDS011;22846;42.654;23.314;2023-11-18T08:23:50;2.08;;;0.70;;
31336;SDS011;22846;42.654;23.314;2023-11-18T08:26:15;0.82;;;0.70;;
31336;SDS011;22846;42.654;23.314;2023-11-18T08:28:41;0.68;;;0.68;;
31336;SDS011;22846;42.654;23.314;2023-11-18T08:31:06;1.00;;;0.63;;
31336;SDS011;22846;42.654;23.314;2023-11-18T08:33:32;0.50;;;0.50;;
31336;SDS011;22846;42.654;23.314;2023-11-18T08:35:59;0.70;;;0.60;;
31336;SDS011;22846;42.654;23.314;2023-11-18T08:38:26;0.60;;;0.57;;
31336;SDS011;22846;42.654;23.314;2023-11-18T08:40:53;0.95;;;0.68;;
31336;SDS011;22846;42.654;23.314;2023-11-18T08:43:18;0.63;;;0.63;;
31336;SDS011;22846;42.654;23.314;2023-11-18T08:45:46;1.27;;;0.55;;
31336;SDS011;22846;42.654;23.314;2023-11-18T08:48:12;0.73;;;0.60;;
31336;SDS011;22846;42.654;23.314;2023-11-18T08:50:38;0.80;;;0.65;;
31336;SDS011;22846;42.654;23.314;2023-11-18T08:53:08;0.60;;;0.50;;
31336;SDS011;22846;42.654;23.314;2023-11-18T08:55:34;1.75;;;0.50;;
31336;SDS011;22846;42.654;23.314;2023-11-18T08:58:10;0.70;;;0.70;;
31336;SDS011;22846;42.654;23.314;2023-11-18T09:00:57;1.42;;;0.80;;
31336;SDS011;22846;42.654;23.314;2023-11-18T09:03:38;0.60;;;0.60;;
31336;SDS011;22846;42.654;23.314;2023-11-18T09:06:08;1.25;;;0.80;;
31336;SDS011;22846;42.654;23.314;2023-11-18T09:08:44;1.63;;;0.80;;
31336;SDS011;22846;42.654;23.314;2023-11-18T09:11:12;0.98;;;0.68;;
31336;SDS011;22846;42.654;23.314;2023-11-18T09:13:44;1.25;;;0.68;;
31336;SDS011;22846;42.654;23.314;2023-11-18T09:16:14;1.42;;;1.00;;
31336;SDS011;22846;42.654;23.314;2023-11-18T09:18:42;2.53;;;1.00;;
31336;SDS011;22846;42.654;23.314;2023-11-18T09:21:10;1.75;;;1.00;;
31336;SDS011;22846;42.654;23.314;2023-11-18T09:23:40;0.80;;;0.70;;
31336;SDS011;22846;42.654;23.314;2023-11-18T09:26:07;0.90;;;0.70;;
31336;SDS011;22846;42.654;23.314;2023-11-18T09:28:33;1.83;;;0.90;;
31336;SDS011;22846;42.654;23.314;2023-11-18T09:31:00;0.77;;;0.60;;
31336;SDS011;22846;42.654;23.314;2023-11-18T09:33:29;1.52;;;0.90;;
31336;SDS011;22846;42.654;23.314;2023-11-18T09:38:35;1.38;;;0.80;;
31336;SDS011;22846;42.654;23.314;2023-11-18T09:41:05;0.77;;;0.73;;
31336;SDS011;22846;42.654;23.314;2023-11-18T09:43:32;1.38;;;0.70;;
31336;SDS011;22846;42.654;23.314;2023-11-18T09:46:07;0.75;;;0.70;;
31336;SDS011;22846;42.654;23.314;2023-11-18T09:48:47;1.00;;;0.70;;
31336;SDS011;22846;42.654;23.314;2023-11-18T09:51:25;2.28;;;0.90;;
31336;SDS011;22846;42.654;23.314;2023-11-18T09:53:58;1.30;;;0.90;;
31336;SDS011;22846;42.654;23.314;2023-11-18T09:56:35;2.28;;;0.88;;
31336;SDS011;22846;42.654;23.314;2023-11-18T09:59:25;4.55;;;1.02;;
31336;SDS011;22846;42.654;23.314;2023-11-18T10:01:57;2.25;;;1.10;;
31336;SDS011;22846;42.654;23.314;2023-11-18T10:04:26;1.75;;;1.00;;
31336;SDS011;22846;42.654;23.314;2023-11-18T10:06:55;2.00;;;1.10;;
31336;SDS011;22846;42.654;23.314;2023-11-18T10:09:22;1.35;;;0.90;;
31336;SDS011;22846;42.654;23.314;2023-11-18T10:12:02;2.75;;;1.20;;
31336;SDS011;22846;42.654;23.314;2023-11-18T10:14:30;2.85;;;1.10;;
31336;SDS011;22846;42.654;23.314;2023-11-18T10:16:58;1.65;;;0.90;;
31336;SDS011;22846;42.654;23.314;2023-11-18T10:19:25;1.88;;;0.90;;
31336;SDS011;22846;42.654;23.314;2023-11-18T10:21:51;1.27;;;0.80;;
31336;SDS011;22846;42.654;23.314;2023-11-18T10:24:19;2.83;;;1.23;;
31336;SDS011;22846;42.654;23.314;2023-11-18T10:26:45;1.50;;;0.75;;
31336;SDS011;22846;42.654;23.314;2023-11-18T10:29:21;2.95;;;1.00;;
31336;SDS011;22846;42.654;23.314;2023-11-18T10:31:48;1.77;;;1.10;;
31336;SDS011;22846;42.654;23.314;2023-11-18T10:34:14;3.63;;;1.02;;
31336;SDS011;22846;42.654;23.314;2023-11-18T10:36:58;1.83;;;1.10;;
31336;SDS011;22846;42.654;23.314;2023-11-18T10:39:29;1.73;;;1.02;;
31336;SDS011;22846;42.654;23.314;2023-11-18T10:42:03;2.15;;;0.93;;
31336;SDS011;22846;42.654;23.314;2023-11-18T10:44:29;1.58;;;1.02;;
31336;SDS011;22846;42.654;23.314;2023-11-18T10:46:55;2.55;;;1.00;;
31336;SDS011;22846;42.654;23.314;2023-11-18T10:49:24;1.42;;;1.08;;
31336;SDS011;22846;42.654;23.314;2023-11-18T10:51:54;3.17;;;0.90;;
31336;SDS011;22846;42.654;23.314;2023-11-18T10:54:21;1.30;;;0.98;;
31336;SDS011;22846;42.654;23.314;2023-11-18T10:56:47;3.88;;;0.95;;
31336;SDS011;22846;42.654;23.314;2023-11-18T10:59:14;1.60;;;1.00;;
31336;SDS011;22846;42.654;23.314;2023-11-18T11:01:43;1.80;;;1.00;;
31336;SDS011;22846;42.654;23.314;2023-11-18T11:04:12;2.13;;;1.05;;
31336;SDS011;22846;42.654;23.314;2023-11-18T11:06:42;2.85;;;1.00;;
31336;SDS011;22846;42.654;23.314;2023-11-18T11:09:11;2.33;;;0.90;;
31336;SDS011;22846;42.654;23.314;2023-11-18T11:11:46;1.73;;;0.88;;
31336;SDS011;22846;42.654;23.314;2023-11-18T11:14:14;1.73;;;1.05;;
31336;SDS011;22846;42.654;23.314;2023-11-18T11:16:45;2.58;;;0.95;;
31336;SDS011;22846;42.654;23.314;2023-11-18T11:19:24;0.95;;;0.75;;
31336;SDS011;22846;42.654;23.314;2023-11-18T11:22:00;2.33;;;1.13;;
31336;SDS011;22846;42.654;23.314;2023-11-18T11:27:25;1.42;;;0.75;;
31336;SDS011;22846;42.654;23.314;2023-11-18T11:30:40;2.28;;;0.98;;
31336;SDS011;22846;42.654;23.314;2023-11-18T11:33:25;5.63;;;1.10;;
31336;SDS011;22846;42.654;23.314;2023-11-18T11:35:55;2.78;;;1.10;;
31336;SDS011;22846;42.654;23.314;2023-11-18T11:38:24;5.28;;;0.90;;
31336;SDS011;22846;42.654;23.314;2023-11-18T11:40:51;2.05;;;1.10;;
31336;SDS011;22846;42.654;23.314;2023-11-18T11:43:20;3.33;;;0.80;;
31336;SDS011;22846;42.654;23.314;2023-11-18T11:45:55;1.45;;;0.90;;
31336;SDS011;22846;42.654;23.314;2023-11-18T11:48:23;0.90;;;0.80;;
31336;SDS011;22846;42.654;23.314;2023-11-18T11:53:29;1.35;;;0.88;;
31336;SDS011;22846;42.654;23.314;2023-11-18T11:55:58;1.52;;;0.70;;
31336;SDS011;22846;42.654;23.314;2023-11-18T11:58:31;2.42;;;0.90;;
31336;SDS011;22846;42.654;23.314;2023-11-18T12:01:21;1.67;;;0.80;;
31336;SDS011;22846;42.654;23.314;2023-11-18T12:03:53;3.92;;;0.90;;
31336;SDS011;22846;42.654;23.314;2023-11-18T12:06:22;0.90;;;0.73;;
31336;SDS011;22846;42.654;23.314;2023-11-18T12:08:51;2.92;;;1.00;;
31336;SDS011;22846;42.654;23.314;2023-11-18T12:11:17;1.55;;;0.80;;
31336;SDS011;22846;42.654;23.314;2023-11-18T12:14:04;1.73;;;0.80;;
31336;SDS011;22846;42.654;23.314;2023-11-18T12:17:02;1.45;;;0.70;;
31336;SDS011;22846;42.654;23.314;2023-11-18T12:19:46;1.80;;;0.70;;
31336;SDS011;22846;42.654;23.314;2023-11-18T12:22:19;1.45;;;0.75;;
31336;SDS011;22846;42.654;23.314;2023-11-18T12:30:20;1.35;;;0.90;;
31336;SDS011;22846;42.654;23.314;2023-11-18T12:33:02;0.90;;;0.68;;
31336;SDS011;22846;42.654;23.314;2023-11-18T12:41:00;1.02;;;0.60;;
31336;SDS011;22846;42.654;23.314;2023-11-18T12:43:49;0.65;;;0.60;;
31336;SDS011;22846;42.654;23.314;2023-11-18T12:49:08;1.85;;;0.73;;
31336;SDS011;22846;42.654;23.314;2023-11-18T12:51:45;1.10;;;0.88;;
31336;SDS011;22846;42.654;23.314;2023-11-18T12:54:11;1.05;;;0.80;;
31336;SDS011;22846;42.654;23.314;2023-11-18T12:56:37;1.33;;;0.70;;
31336;SDS011;22846;42.654;23.314;2023-11-18T12:59:09;1.80;;;0.90;;
31336;SDS011;22846;42.654;23.314;2023-11-18T13:01:34;2.42;;;0.70;;
31336;SDS011;22846;42.654;23.314;2023-11-18T13:04:04;1.73;;;0.70;;
31336;SDS011;22846;42.654;23.314;2023-11-18T13:06:29;3.05;;;0.80;;
31336;SDS011;22846;42.654;23.314;2023-11-18T13:08:55;1.05;;;0.80;;
31336;SDS011;22846;42.654;23.314;2023-11-18T13:11:24;1.83;;;0.90;;
31336;SDS011;22846;42.654;23.314;2023-11-18T13:13:53;1.30;;;0.60;;
31336;SDS011;22846;42.654;23.314;2023-11-18T13:16:18;0.73;;;0.50;;
31336;SDS011;22846;42.654;23.314;2023-11-18T13:18:44;0.85;;;0.60;;
31336;SDS011;22846;42.654;23.314;2023-11-18T13:21:15;0.70;;;0.70;;
31336;SDS011;22846;42.654;23.314;2023-11-18T13:23:51;1.08;;;0.60;;
31336;SDS011;22846;42.654;23.314;2023-11-18T13:26:20;1.00;;;0.70;;
31336;SDS011;22846;42.654;23.314;2023-11-18T13:28:46;4.22;;;1.02;;
31336;SDS011;22846;42.654;23.314;2023-11-18T13:31:14;6.57;;;4.10;;
31336;SDS011;22846;42.654;23.314;2023-11-18T13:33:41;1.05;;;0.90;;
31336;SDS011;22846;42.654;23.314;2023-11-18T13:36:08;3.45;;;1.00;;
31336;SDS011;22846;42.654;23.314;2023-11-18T13:38:37;0.88;;;0.70;;
31336;SDS011;22846;42.654;23.314;2023-11-18T13:41:03;1.13;;;0.93;;
31336;SDS011;22846;42.654;23.314;2023-11-18T13:43:42;3.85;;;1.33;;
31336;SDS011;22846;42.654;23.314;2023-11-18T13:46:10;2.42;;;0.90;;
31336;SDS011;22846;42.654;23.314;2023-11-18T13:48:38;3.05;;;1.00;;
31336;SDS011;22846;42.654;23.314;2023-11-18T13:51:08;1.63;;;0.80;;
31336;SDS011;22846;42.654;23.314;2023-11-18T13:53:38;2.50;;;0.90;;
31336;SDS011;22846;42.654;23.314;2023-11-18T13:56:06;2.60;;;1.10;;
31336;SDS011;22846;42.654;23.314;2023-11-18T13:58:34;3.58;;;1.20;;
31336;SDS011;22846;42.654;23.314;2023-11-18T14:01:00;3.95;;;1.00;;
31336;SDS011;22846;42.654;23.314;2023-11-18T14:03:25;2.20;;;1.10;;
31336;SDS011;22846;42.654;23.314;2023-11-18T14:05:52;1.10;;;1.00;;
31336;SDS011;22846;42.654;23.314;2023-11-18T14:08:23;2.63;;;1.15;;
31336;SDS011;22846;42.654;23.314;2023-11-18T14:10:49;1.52;;;1.00;;
31336;SDS011;22846;42.654;23.314;2023-11-18T14:13:14;2.22;;;1.10;;
31336;SDS011;22846;42.654;23.314;2023-11-18T14:15:42;10.68;;;1.55;;
31336;SDS011;22846;42.654;23.314;2023-11-18T14:18:10;15.38;;;1.77;;
31336;SDS011;22846;42.654;23.314;2023-11-18T14:20:36;9.90;;;1.33;;
31336;SDS011;22846;42.654;23.314;2023-11-18T14:23:02;4.50;;;1.40;;
31336;SDS011;22846;42.654;23.314;2023-11-18T14:25:31;5.65;;;1.55;;
31336;SDS011;22846;42.654;23.314;2023-11-18T14:27:58;6.38;;;1.30;;
31336;SDS011;22846;42.654;23.314;2023-11-18T14:30:24;5.85;;;1.40;;
31336;SDS011;22846;42.654;23.314;2023-11-18T14:32:53;9.07;;;6.38;;
31336;SDS011;22846;42.654;23.314;2023-11-18T14:35:19;27.50;;;17.75;;
31336;SDS011;22846;42.654;23.314;2023-11-18T14:37:45;28.08;;;19.58;;
31336;SDS011;22846;42.654;23.314;2023-11-18T14:40:12;24.10;;;18.00;;
31336;SDS011;22846;42.654;23.314;2023-11-18T14:42:39;25.40;;;16.60;;
31336;SDS011;22846;42.654;23.314;2023-11-18T14:45:06;19.38;;;14.00;;
31336;SDS011;22846;42.654;23.314;2023-11-18T14:47:33;22.02;;;13.35;;
31336;SDS011;22846;42.654;23.314;2023-11-18T14:49:59;18.48;;;11.13;;
31336;SDS011;22846;42.654;23.314;2023-11-18T14:52:25;17.67;;;11.82;;
31336;SDS011;22846;42.654;23.314;2023-11-18T14:54:50;15.73;;;9.50;;
31336;SDS011;22846;42.654;23.314;2023-11-18T14:57:16;32.58;;;24.42;;
31336;SDS011;22846;42.654;23.314;2023-11-18T14:59:41;42.28;;;31.38;;
31336;SDS011;22846;42.654;23.314;2023-11-18T15:02:08;38.58;;;27.88;;
31336;SDS011;22846;42.654;23.314;2023-11-18T15:04:33;41.00;;;24.77;;